TOURFACTS.DK  
Stats and Facts from Tour de France.

Tour de France 2019 starts in 320 days
  Riders   Stages   Teams   Summits   Yearly  


 
Search by year

After 2018 - Stage 21:
 15000 starters.
  5165 different riders.
  638 teams.
  2253 stages.
  456 restdays.
  442940.60 km.
  5684 abandonnees.


Top 3
GC
Geraint Thomas83:17:13
Tom Dumoulin83:19:04
Christopher Froome83:19:37
Climb
Julian Alaphilippe170 pt.
Warren Barguil91 pt.
Rafal Majka76 pt.
Sprint
Peter Sagan477 pt.
Alexander Kristoff246 pt.
Arnaud Démare203 pt.
Youth
Pierre-Roger Latou..83:39:26
Egan Bernal83:45:05
Guillaume Martin84:01:31
Facts from Tour de France 2015
  |   Stages.  |   Stage winners.  |   Days in yellow  |   Average speed.  |   Route.  |   Teams.  |   All riders.  |   Rookies.  |  

  |   Withdrawls.  |   GC.  |   Polka  |   Green  |   White  |   Summits. (In tour)  |   Miscellaneous.  |  

Stage 3 on 06 - 07 - 2015
         Owning:    Christopher Froome      Joaquim Rodriguez      André Greipel      Tom Dumoulin  

Pick a stage:  1 2 3 4 5 6 7 8 9 10 11 12 13 14 15 16 17 18 19 20 21
  AnversHuy | Dist: 159.50 km.
Cat: 4Côte d'EreffeSUIMichael Schär1 points 
Cat: 4Côte de CheravePOLRafal Majka1 points 
Cat: 3Mur de HuyESPJoaquim Rodriguez2 points 

Average speed for all riders in stage:  44,959 km./hr.
    Place:Name:Team:Time:Km/h:
1
ESPJoaquim RodriguezRUSTeam Katusha03:26:54  +  00:00:00=46,254 
2
KENChristopher FroomeGBRSky Procycling03:26:54  +  00:00:00=46,254 
3
FRAAlexis VuillermozFRAAg2r La Mondiale03:26:58  +  00:00:04=46,239 
44 ENGDaniel MartinUSATeam Cannondale - Garmin03:26:59  +  00:00:05=46,236 
55 FRATony GallopinBELLotto Soudal03:27:02  +  00:00:08=46,224 
66 USATejay Van GarderenUSABMC Racing Team03:27:05  +  00:00:11=46,213 
77 ITAVincenzo NibaliKAZAstana Pro Team03:27:05  +  00:00:11=46,213 
88 ENGSimon YatesAUSOrica - GreenEDGE03:27:05  +  00:00:11=46,213 
99 COLNairo QuintanaESPMovistar Team03:27:05  +  00:00:11=46,213 
1010 NEDBauke MollemaUSATrek Factory Racing03:27:05  +  00:00:11=46,213 
1111 ESPAlejandro ValverdeESPMovistar Team03:27:05  +  00:00:11=46,213 
1212 ESPAlberto ContadorRUSTinkoff Saxo03:27:12  +  00:00:18=46,187 
1313 COLJulián ArredondoUSATrek Factory Racing03:27:13  +  00:00:19=46,184 
1414 NEDRobert GesinkNLDTeam Lotto NL - Jumbo03:27:16  +  00:00:22=46,172 
1515 BELGreg Van AvermaetUSABMC Racing Team03:27:16  +  00:00:22=46,172 
1616 FRAJean-Christophe PeraudFRAAg2r La Mondiale03:27:18  +  00:00:24=46,165 
1717 FRAWarren BarguilDEUTeam Giant Alpecin03:27:18  +  00:00:24=46,165 
1818 FRAJulien SimonFRACofidis – Solutions Crédits03:27:22  +  00:00:28=46,150 
1919 COLRigoberto UránBELEtixx - Quick Step03:27:28  +  00:00:34=46,128 
2020 FRAPierre RollandFRATeam Europcar03:27:30  +  00:00:36=46,120 
2121 FRARomain BardetFRAAg2r La Mondiale03:27:30  +  00:00:36=46,120 
2222 RSALouis MeintjesZAFMTN - Qhubeka P/B Samsung03:27:30  +  00:00:36=46,120 
2323 FRACyril GautierFRATeam Europcar03:27:30  +  00:00:36=46,120 
2424 CANRyder HesjedalUSATeam Cannondale - Garmin03:27:34  +  00:00:40=46,106 
2525 USAAndrew TalanskyUSATeam Cannondale - Garmin03:27:34  +  00:00:40=46,106 
2626 GERTony MartinBELEtixx - Quick Step03:27:34  +  00:00:40=46,106 
2727 SVKPeter SaganRUSTinkoff Saxo03:27:34  +  00:00:40=46,106 
2828 ARGEduardo SepulvedaFRABretagne - Séché Environnement03:27:39  +  00:00:45=46,087 
2929 ESPDaniel NavarroFRACofidis – Solutions Crédits03:27:39  +  00:00:45=46,087 
3030 ERIMerhawi GhebremedhinZAFMTN - Qhubeka P/B Samsung03:27:39  +  00:00:45=46,087 
3131 CZEZdenek StybarBELEtixx - Quick Step03:27:46  +  00:00:52=46,061 
3232 ENGAdam YatesAUSOrica - GreenEDGE03:27:54  +  00:01:00=46,032 
3333 ITAGiampaolo CarusoRUSTeam Katusha03:27:59  +  00:01:05=46,013 
3434 BELJan BakelantsFRAAg2r La Mondiale03:28:02  +  00:01:08=46,002 
3535 ESPSamuel SanchezUSABMC Racing Team03:28:04  +  00:01:10=45,995 
3636 WALGeraint ThomasGBRSky Procycling03:28:04  +  00:01:10=45,995 
3737 ESPLuis Angel MateFRACofidis – Solutions Crédits03:28:04  +  00:01:10=45,995 
3838 PORRui CostaITALampre-Merida03:28:07  +  00:01:13=45,984 
3939 PORTiago PintoRUSTeam Katusha03:28:07  +  00:01:13=45,984 
4040 ESPHaimar ZubeldiaUSATrek Factory Racing03:28:09  +  00:01:15=45,976 
4141 GERPaul VossDEUBora-Argon 1803:28:14  +  00:01:20=45,958 
4242 ITAMichele ScarponiKAZAstana Pro Team03:28:16  +  00:01:22=45,951 
4343 LUXBob JungelsUSATrek Factory Racing03:28:19  +  00:01:25=45,940 
4444 CZELeopold KönigGBRSky Procycling03:28:19  +  00:01:25=45,940 
4545 FRAArmindo FonsecaFRABretagne - Séché Environnement03:28:19  +  00:01:25=45,940 
4646 GERPaul MartensNLDTeam Lotto NL - Jumbo03:28:19  +  00:01:25=45,940 
4747 ESPAlberto LosadaRUSTeam Katusha03:28:19  +  00:01:25=45,940 
4848 CZERoman KreuzigerRUSTinkoff Saxo03:28:19  +  00:01:25=45,940 
4949 POLMichal KwiatkowskiBELEtixx - Quick Step03:28:19  +  00:01:25=45,940 
5050 GERDominik NerzDEUBora-Argon 1803:28:19  +  00:01:25=45,940 
5151 RSAJacques Janse Van RensburgZAFMTN - Qhubeka P/B Samsung03:28:23  +  00:01:29=45,925 
5252 FRAThibaut PinotFRAFDJ03:28:27  +  00:01:33=45,910 
5353 ESPGorka Izaguirre InsaustiESPMovistar Team03:28:27  +  00:01:33=45,910 
5454 AUTGeorg PreidlerDEUTeam Giant Alpecin03:28:33  +  00:01:39=45,888 
5555 SUIJakob FuglsangKAZAstana Pro Team03:28:33  +  00:01:39=45,888 
5656 POLRafal MajkaRUSTinkoff Saxo03:28:46  +  00:01:52=45,841 
5757 GEREmanuel BuchmannDEUBora-Argon 1803:28:53  +  00:01:59=45,815 
5858 NEDWilco KeldermanNLDTeam Lotto NL - Jumbo03:28:53  +  00:01:59=45,815 
5959 FRAMickaël CherelFRAAg2r La Mondiale03:28:53  +  00:01:59=45,815 
6060 NEDSteven KruijswijkNLDTeam Lotto NL - Jumbo03:28:53  +  00:01:59=45,815 
6161 POLBartosz HuzarskiDEUBora-Argon 1803:28:53  +  00:01:59=45,815 
6262 FRARomain SicardFRATeam Europcar03:28:53  +  00:01:59=45,815 
6363 SUIMathias FrankCHEIAM Cycling03:28:53  +  00:01:59=45,815 
6464 FRASylvain ChavanelCHEIAM Cycling03:28:53  +  00:01:59=45,815 
6565 FRAJérémy RoyFRAFDJ03:29:02  +  00:02:08=45,782 
6666 NOREdvald Boasson HagenZAFMTN - Qhubeka P/B Samsung03:29:02  +  00:02:08=45,782 
6767 SUISteve MorabitoFRAFDJ03:29:02  +  00:02:08=45,782 
6868 FRAAnthony DelaplaceFRABretagne - Séché Environnement03:29:02  +  00:02:08=45,782 
6969 SUIMarcel WyssCHEIAM Cycling03:29:11  +  00:02:17=45,749 
7070 COLJarlinson Pantano GomezCHEIAM Cycling03:29:23  +  00:02:29=45,706 
7171 SLOKristjan KorenUSATeam Cannondale - Garmin03:29:23  +  00:02:29=45,706 
7272 FRAFlorian VachonFRABretagne - Séché Environnement03:29:23  +  00:02:29=45,706 
7373 URSTanel KangertKAZAstana Pro Team03:29:23  +  00:02:29=45,706 
7474 GERSimon GeschkeDEUTeam Giant Alpecin03:29:47  +  00:02:53=45,618 
7575 FRAPierrick FédrigoFRABretagne - Séché Environnement03:29:47  +  00:02:53=45,618 
7676 BELTim WellensBELLotto Soudal03:30:18  +  00:03:24=45,506 
7777 CZEJan BártaDEUBora-Argon 1803:30:52  +  00:03:58=45,384 
7878 NEDStef ClementCHEIAM Cycling03:30:52  +  00:03:58=45,384 
7979 AUSRichie PorteGBRSky Procycling03:30:52  +  00:03:58=45,384 
8080 NEDKoen De KortDEUTeam Giant Alpecin03:30:52  +  00:03:58=45,384 
8181 ENGStephen CummingsZAFMTN - Qhubeka P/B Samsung03:30:52  +  00:03:58=45,384 
8282 BELSerge PauwelsZAFMTN - Qhubeka P/B Samsung03:30:52  +  00:03:58=45,384 
8383 ITAIvan BassoRUSTinkoff Saxo03:30:52  +  00:03:58=45,384 
8484 AUSMichael RogersRUSTinkoff Saxo03:30:52  +  00:03:58=45,384 
8585 FRAPerrig QuemeneurFRATeam Europcar03:30:52  +  00:03:58=45,384 
8686 ESPJosé Herrada LópezESPMovistar Team03:30:52  +  00:03:58=45,384 
8787 FRAChristophe RiblonFRAAg2r La Mondiale03:30:52  +  00:03:58=45,384 
8888 DENLars BakBELLotto Soudal03:30:52  +  00:03:58=45,384 
8989 LUXBen GastauerFRAAg2r La Mondiale03:30:52  +  00:03:58=45,384 
9090 ERIDaniel TeklehaimanotZAFMTN - Qhubeka P/B Samsung03:30:52  +  00:03:58=45,384 
9191 SUIReto HollensteinCHEIAM Cycling03:30:52  +  00:03:58=45,384 
9292 NEDBram TankinkNLDTeam Lotto NL - Jumbo03:31:08  +  00:04:14=45,327 
9393 FRAThomas VoecklerFRATeam Europcar03:31:08  +  00:04:14=45,327 
9494 COLJosé SerpaITALampre-Merida03:31:10  +  00:04:16=45,320 
9595 FRAJérôme CoppelCHEIAM Cycling03:31:10  +  00:04:16=45,320 
9696 FRABrice FeilluFRABretagne - Séché Environnement03:31:10  +  00:04:16=45,320 
9797 FRAAngelo TulikFRATeam Europcar03:31:18  +  00:04:24=45,291 
9898 BELJulien VermoteBELEtixx - Quick Step03:31:27  +  00:04:33=45,259 
9999 RSAReinardt Janse Van RensburgZAFMTN - Qhubeka P/B Samsung03:31:27  +  00:04:33=45,259 
100100 AUSNathan HaasUSATeam Cannondale - Garmin03:31:30  +  00:04:36=45,248 
101101 ITADaniel OssUSABMC Racing Team03:32:11  +  00:05:17=45,103 
102102 ESPRubén PlazaITALampre-Merida03:33:07  +  00:06:13=44,905 
103103 FRANicolas RocheGBRSky Procycling03:33:07  +  00:06:13=44,905 
104104 HRVKristijan DurasekITALampre-Merida03:33:07  +  00:06:13=44,905 
105105 NEDPieter WeeningAUSOrica - GreenEDGE03:33:07  +  00:06:13=44,905 
106106 ITAMatteo BonoITALampre-Merida03:33:07  +  00:06:13=44,905 
107107 PORNelson OliveiraITALampre-Merida03:33:07  +  00:06:13=44,905 
108108 URSRamunas NavardauskasUSATeam Cannondale - Garmin03:33:07  +  00:06:13=44,905 
109109 POLMichal GolasBELEtixx - Quick Step03:33:07  +  00:06:13=44,905 
110110 SUIMichael AlbasiniAUSOrica - GreenEDGE03:33:19  +  00:06:25=44,863 
111111 ESPRafael Valls FerriITALampre-Merida03:33:29  +  00:06:35=44,828 
112112 SUIMichael SchärUSABMC Racing Team03:33:43  +  00:06:49=44,779 
113113 SUIDanilo WyssUSABMC Racing Team03:33:43  +  00:06:49=44,779 
114114 ITADamiano CarusoUSABMC Racing Team03:33:43  +  00:06:49=44,779 
115115 SUIGregory RastUSATrek Factory Racing03:33:43  +  00:06:49=44,779 
116116 COLWinner AnaconaESPMovistar Team03:34:11  +  00:07:17=44,681 
117117 LUXLaurent DidierUSATrek Factory Racing03:34:11  +  00:07:17=44,681 
118118 FRAArnaud GérardFRABretagne - Séché Environnement03:34:55  +  00:08:01=44,529 
119119 IOMPeter KennaughGBRSky Procycling03:34:55  +  00:08:01=44,529 
120120 UKRAndriy GrivkoKAZAstana Pro Team03:35:08  +  00:08:14=44,484 
121121 URSRein TaaramäeKAZAstana Pro Team03:35:20  +  00:08:26=44,443 
122122 AUSRohan DennisUSABMC Racing Team03:36:34  +  00:09:40=44,190 
123123 ESPJonathan CastroviejoESPMovistar Team03:37:09  +  00:10:15=44,071 
124124 ITALuca PaoliniRUSTeam Katusha03:37:32  +  00:10:38=43,993 
125125 AUSLuke DurbridgeAUSOrica - GreenEDGE03:37:39  +  00:10:45=43,970 
126126 NEDDylan Van BaarleUSATeam Cannondale - Garmin03:37:39  +  00:10:45=43,970 
127127 BELThomas De GendtBELLotto Soudal03:37:39  +  00:10:45=43,970 
128128 FRAMatthieu LadagnousFRAFDJ03:37:39  +  00:10:45=43,970 
129129 NEDRoy CurversDEUTeam Giant Alpecin03:37:39  +  00:10:45=43,970 
130130 NEDLieuwe WestraKAZAstana Pro Team03:37:39  +  00:10:45=43,970 
131131 FRAFrédéric BrunFRABretagne - Séché Environnement03:37:39  +  00:10:45=43,970 
132132 NEDWout PoelsGBRSky Procycling03:37:39  +  00:10:45=43,970 
133133 FRAAlexandre GeniezFRAFDJ03:37:39  +  00:10:45=43,970 
134134 NEDLars BoomKAZAstana Pro Team03:37:42  +  00:10:48=43,960 
135135 FRABenoit VaugrenardFRAFDJ03:37:48  +  00:10:54=43,939 
136136 NEDRamon SinkeldamDEUTeam Giant Alpecin03:37:48  +  00:10:54=43,939 
137137 GERMarcel SiebergBELLotto Soudal03:37:48  +  00:10:54=43,939 
138138 FRANicolas EdetFRACofidis – Solutions Crédits03:37:48  +  00:10:54=43,939 
139139 NEDAlbert TimmerDEUTeam Giant Alpecin03:37:48  +  00:10:54=43,939 
140140 FRABryan CoquardFRATeam Europcar03:37:48  +  00:10:54=43,939 
141141 AUTMatthias BrändleCHEIAM Cycling03:37:48  +  00:10:54=43,939 
142142 FRABryan NauleauFRATeam Europcar03:37:48  +  00:10:54=43,939 
143143 FRAGeoffrey SoupeFRACofidis – Solutions Crédits03:37:48  +  00:10:54=43,939 
144144 AUSAdam HansenBELLotto Soudal03:37:48  +  00:10:54=43,939 
145145 NEDJos Van EmdenNLDTeam Lotto NL - Jumbo03:37:48  +  00:10:54=43,939 
146146 GERAndré GreipelBELLotto Soudal03:37:48  +  00:10:54=43,939 
147147 FRASébastien ChavanelFRAFDJ03:37:48  +  00:10:54=43,939 
148148 BELSep VanmarckeNLDTeam Lotto NL - Jumbo03:37:48  +  00:10:54=43,939 
149149 SUIMartin ElmigerCHEIAM Cycling03:37:48  +  00:10:54=43,939 
150150 FRAArnaud DémareFRAFDJ03:37:48  +  00:10:54=43,939 
151151 BELStijn DevolderUSATrek Factory Racing03:37:48  +  00:10:54=43,939 
152152 KAZDmitriy GruzdevKAZAstana Pro Team03:37:48  +  00:10:54=43,939 
153153 ITAMatteo TrentinBELEtixx - Quick Step03:37:48  +  00:10:54=43,939 
154154 ITAAdriano MaloriESPMovistar Team03:37:48  +  00:10:54=43,939 
155155 ESPImanol ErvitiESPMovistar Team03:37:48  +  00:10:54=43,939 
156156 FRADamien GaudinFRAAg2r La Mondiale03:37:56  +  00:11:02=43,913 
157157 FRAFlorian SénéchalFRACofidis – Solutions Crédits03:37:56  +  00:11:02=43,913 
158158 FRAYohann GèneFRATeam Europcar03:37:56  +  00:11:02=43,913 
159159 FRAPierre-Luc PérichonFRABretagne - Séché Environnement03:37:56  +  00:11:02=43,913 
160160 NZLJack BauerUSATeam Cannondale - Garmin03:37:56  +  00:11:02=43,913 
161161 BELJens DebusschereBELLotto Soudal03:37:56  +  00:11:02=43,913 
162162 PORJosé João PimentaDEUBora-Argon 1803:37:56  +  00:11:02=43,913 
163163 USATyler FarrarZAFMTN - Qhubeka P/B Samsung03:37:56  +  00:11:02=43,913 
164164 ITADaniele BennatiRUSTinkoff Saxo03:38:03  +  00:11:09=43,889 
165165 ITAMatteo TosattoRUSTinkoff Saxo03:38:03  +  00:11:09=43,889 
166166 DENMichael ValgrenRUSTinkoff Saxo03:38:03  +  00:11:09=43,889 
167167 FRAChristophe LaporteFRACofidis – Solutions Crédits03:38:03  +  00:11:09=43,889 
168168 AUSMark RenshawBELEtixx - Quick Step03:38:03  +  00:11:09=43,889 
169169 AUSZakkari DempsterDEUBora-Argon 1803:38:03  +  00:11:09=43,889 
170170 IOMMark CavendishBELEtixx - Quick Step03:38:03  +  00:11:09=43,889 
171171 ITAJacopo GuarnieriRUSTeam Katusha03:38:03  +  00:11:09=43,889 
172172 FRANacer BouhanniFRACofidis – Solutions Crédits03:38:03  +  00:11:09=43,889 
173173 ITAManuel QuinziatoUSABMC Racing Team03:38:03  +  00:11:09=43,889 
174174 ENGAlex DowsettESPMovistar Team03:38:03  +  00:11:09=43,889 
175175 GERAndreas SchillingerDEUBora-Argon 1803:38:03  +  00:11:09=43,889 
176176 BELKenneth VanbilsenFRACofidis – Solutions Crédits03:38:03  +  00:11:09=43,889 
177177 ENGIan StannardGBRSky Procycling03:38:03  +  00:11:09=43,889 
178178 NEDTom LeezerNLDTeam Lotto NL - Jumbo03:38:03  +  00:11:09=43,889 
179179 NEDSebastian LangeveldUSATeam Cannondale - Garmin03:38:03  +  00:11:09=43,889 
180180 CANSvein TuftAUSOrica - GreenEDGE03:38:03  +  00:11:09=43,889 
181181 BELJohan VansummerenFRAAg2r La Mondiale03:38:18  +  00:11:24=43,839 
182182 WALLuke RoweGBRSky Procycling03:38:20  +  00:11:26=43,832 
183183 RSADaryl ImpeyAUSOrica - GreenEDGE03:38:22  +  00:11:28=43,825 
184184 GERJohn DegenkolbDEUTeam Giant Alpecin03:38:22  +  00:11:28=43,825 
185185 ITAFilippo PozzatoITALampre-Merida03:38:30  +  00:11:36=43,799 
186186 ITADavide CimolaiITALampre-Merida03:38:30  +  00:11:36=43,799 
187187 ESPMarkel IrizarUSATrek Factory Racing03:38:37  +  00:11:43=43,775 
188188 SUIFabian CancellaraUSATrek Factory Racing03:38:37  +  00:11:43=43,775 
189189 BELSam BennettDEUBora-Argon 1803:38:39  +  00:11:45=43,769 
190190 NORAlexander KristoffRUSTeam Katusha03:38:41  +  00:11:47=43,762 
191191 AUTMarco HallerRUSTeam Katusha03:38:41  +  00:11:47=43,762 
192192 NEDLaurens ten DamNLDTeam Lotto NL - Jumbo03:40:32  +  00:13:38=43,395 
193193 NZLGregory HendersonBELLotto Soudal03:41:07  +  00:14:13=43,280 
194194 AUSMichael MatthewsAUSOrica - GreenEDGE03:48:32  +  00:21:38=41,876 

Withdrawls: 4
 
Rider
Team
Reason
22  FRAWilliam BonnetFRAFDJDid not finish
85  NEDTom DumoulinDEUTeam Giant AlpecinDid not finish
95  RUSDimitry KozonchukRUSTeam KatushaDid not finish
101  AUSSimon GerransAUSOrica - GreenEDGEDid not finish
Todays birthdays.

1878  Jean Novo
1883  Jules Chabas
1890  Ange Aubry
1893  Roger Marye
1913  Paul Maye
1914  Lucien Vlaemynck
1915  Alphonse Antoine
1932  Rolf Graf
1953  Julio Rubiano
1959  Jos Haex
1959  Gerard Veldscholten
1963  Pablo Moreno
1964  Juan Castillo
1977  Iban Mayo
1994  Fernando Gaviria